Timeline UpdatesTrip UpdatesNews PostsPvt PostsTravel TipsAdmin PostsConv PostsFollowed PostsChat RequestsBlog PostsPNR Posts

Disclaimer
Search
 
 
Sat Aug 30, 2014 19:42:54 ISTHomeTrainsΣChainsAtlasPNRForumGalleryNewsFAQTripsMembersLoginFeedback
No Recent News for this Train
Other Trains in the News **new
Latest...
Temporary Augmentation of 1 SL coach from 5/4/14-28/6/14 #1043381
Wed Apr 02, 2014 (11:23PM)
⇐ Return Journey: Train# 15905

15906/Dibrugarh - Kanyakumari Vivek Express

Jul 19 2014 (8:50PM)
Change Departure Station:
Change Arrival Station:
Post a Train Travel TipPost a Train Travel Tip **new
Post a Comment/Question/Picture/VideoPost a Comment/Question/Picture/Video
Inaugural Run
Sat Nov 26, 2011
Pantry/Catering
✓ Pantry Car Avbl
✓ Catering Avbl
Loco/Rake Reversals
DGR/Durgapur (5); VSKP/Visakhapatnam Junction (8);
RSA - Rake Sharing
Rake/Coach Composition
LOCO-SLR-GS-GS-GS-B2-B1-A1-S9-PC-S8-S7-S6-S5-S4-S3-S2-S1-GS-GS-GS-SLR
Loco
Official Loco Links:- DBRG - DGR :- WDM-3A /3D DGR...
Read more...
- VSKP :- WAM-4/WAP-4 VSKP - CAPE :- WAM-4/WAP-4
News    PNR    Forum    Time-Table    Availability    Fare Chart    Map    Arr/Dep History    Trips    Gallery    ΣChains    X/O    Timeline    
Travel Time: 26h 20m    18 halts    Distance: 1377 km    Avg Speed: 52 km/hr
Type: Mail/Express
Zone: NFR/Northeast Frontier
Departs @ 07:40 (Avg 1h 3m late)
Platform# ???
  T    
Vijayawada Junction/BZA 
Arrives @ 10:00 +1 night (Avg 53m late)
Platform# ???
   W   
Kanniyakumari/CAPE 

18 halts. 224 intermediate Stations between Vijayawada Junction and Kanniyakumari

Show ALL intermediate Stations  Show Old Time-Table

#CodeStation NameX/OArrivesAvgDepartsAvgHaltPFDay#KmSpeedElevZoneAddress
1DBRGDibrugarh (4)  -23:45+1311-2858.542108mNFRDibrugarh 786003, Assam
2NTSKNew Tinsukia Junction (3)  00:45+800:55+1010m--2-2816.555124mNFRDist: Tinsukia, Assam
3MXNMariani Junction (4)  03:45+803:55+810m12-2659.948117mNFRDist. Jorhat Pin-785634, Assam
4FKGFurkating Junction (2)  04:43+1104:45+112m--2-2621.860 NFRK B Rd, Assam
5DMVDimapur (3)  05:55+2106:00+275m--2-2551.762153mNFRDimapur, Nagaland
6DPUDiphu (2)  06:36+4006:37+431m--2-2514.422180mNFRDiphu, Assam
7LMGLumding Junction (5)  08:05+1308:10+225m--2-2482.249142mNFRLumding, Assam
8JIDJagi Road (2)  10:41+1510:42+161m--2-2358.54462mNFRJagiroad, Assam
9GHYGuwahati (7)  12:00+912:15+815m--2-2301.57360mNFRGuwahati, Assam
10GLPTGoalpara Town (2)  14:02+4214:04+442m--2-2170.93149mNFRGoalpara Town Rail Station, Assam
11NBQNew Bongaigaon Junction (4)X  15:45+415:50+55m--2-2119.45858mNFR783381., Assam
12KOJKokrajhar (3)  16:19+1916:20+231m--2-2091.67046mNFR03661-270618, Assam
13APDJAlipur Duar Junction (3)  17:30+3117:35+325m--2-2010.44053mNFRDist - Alipurduar, West Bengal
14NJPNew Jalpaiguri Junction (8)X  21:45+3822:00+4315m32-1841.979114mNFRCity-Siliguri . Dist-Jalpaiguri, West Bengal
15KNEKishanGanj (3)X  23:06+5323:08+532m--2-1754.65252mNFRKishanganj, Bihar
16MLDTMalda Town (5)X  02:00+3402:15+3215m--3-1606.45030mERDist - Malda, West Bengal
17RPHRampurhat (3)  04:45+4904:50+495m13-1482.64741mERDIST - Birbhum, West Bengal
18UDLAndal Junction (6)  07:00-07:02-2m53-1381.53186mERAndal, West Bengal
19DGRDurgapur (5)XO07:35+5308:00+4525m13-1364.44671mERDurgapur, West Bengal
20ASNAsansol Junction (7)  08:55+3609:05+3610m43-1322.045113mERDist - bardhaman, West Bengal
21ADRAAdra Junction (4)  10:00+3810:05+405m43-1280.571190mSERDist - Puruliya, West Bengal
22BQABankura Junction (3)X  10:50+2910:52+302m--3-1227.69389mSERDist - Bankura, West Bengal
23MDNMidnapore (3)  11:58+4612:00+462m--3-1125.11553mSERMedinipur, West Bengal
24HIJHijli (2)  12:56+3212:57+401m33-1111.48548mSERdist - paschim medinipur, West Bengal
25BLSBalasore (4)  14:16+1914:18+182m33-999.26919mSERBalasore, Odisha
26BHCBhadrak (4)  15:12+5215:14+532m--3-936.79023mECoRBhadrak, Odisha
27CTCCuttack Junction (5)  16:31+1:2416:33+1:322m--3-821.04228mECoRCuttack, Odisha
28BBSBhubaneswar (4)X  17:13+1:2617:18+1:275m43-793.25240mECoRBhubaneshwar, Odisha
29KURKhurda Road Junction (7)X  17:40+1:4317:55+1:4215m--3-774.27725mECoRKhordha, Odisha
30BAMBrahmapur (3)X  19:50+1:4519:55+1:455m23-627.12827mECoRBerhampur, Odisha
31PSAPalasa (3)X  22:33+2822:35+282m--3-552.87731mECoRKasibugga, Andhra Pradesh
32CHESrikakulam Road (4)  23:32+2823:34+302m--3-479.87434mECoRsrikakulam road ph .no. 08942-287222, Andhra Pradesh
33VZMVizianagaram Junction (5)X  00:30+2500:32+282m--4-410.26363mECoRVizianagaram, Andhra Pradesh
34VSKPVisakhapatnam Junction (8)X01:30+3501:50+3320m34-349.13511mECoRVishakhapatnam 530001, Andhra Pradesh
35DVDDuvvada (4)  02:18+3102:20+312m--4-332.89346mECoRVishakhapatnam District, Andhra Pradesh
36SLOSamalkot Junction (3)  03:46+1:0103:47+1:021m34-199.56118mSCRSamalkot, Andhra Pradesh
37RJYRajahmundry (3)  04:36+1:0904:38+1:102m14-149.36723mSCRRajahmundry ph.no. 0883-2420541, Andhra Pradesh
38EEEluru (3)X  05:59+1:0506:00+1:061m--4-59.44519mSCREluru Ph.no. 08812 226401., Andhra Pradesh
39BZA»Vijayawada Junction (10)»X  07:20+1:0407:40+1:0320m--40.07724mSCRVijayawada 520001, Andhra Pradesh
40OGLOngole (3)  09:28+1:1609:29+1:171m34138.310812mSCROngole, Andhra Pradesh
41NLRNellore (4)  10:34+5810:35+581m34255.03421mSCRNellore, Andhra Pradesh
42RURenigunta Junction (5)X  14:10+3114:20+3810m--4376.969113mSCRChittoor District, Andhra Pradesh
43KPDKatpadi Junction (5)  16:08+1:0316:10+1:032m14501.350213mSRVellore 632007, Tamil Nadu
44JTJJolarpettai Junction (5)X  17:50+3617:55+365m--4585.272405mSRJolarpettai, Tamil Nadu
45SASalem Junction (6)  19:35+4819:40+485m--4705.467283mSRSalem, Tamil Nadu
46EDErode Junction (4)  20:35+5020:40+525m24766.870175mSRErode ph.no: 0424-2256111, Tamil Nadu
47TUPTiruppur (2)X  21:23+5321:25+542m14817.047305mSRTiruppur. Ph:0421-2200450, Tamil Nadu
48CBECoimbatore Main Junction (6)X  22:30+3922:35+415m--4867.438416mSRCoimbatore 641001, Tamil Nadu
49PGTPalakkad Junction (4)  00:02+4100:05+433m--5922.77384mSRPalghat Tel: 0491 2555231, Kerala
50TCRThrissur (4)  01:07+5001:10+503m15998.6626mSRThrissur Tel: 0487 2423150, Kerala
51AWYAluva (3)  02:03+1:0302:05+1:032m151053.23412mSRPh: 0484-2624141, Kerala
52ERNErnakulam Town (North) (2)  02:35+4402:40+465m251070.0609mSRTel: 0484 2395198, Kerala
53KTYMKottayam (3)  03:40+1:1703:45+1:185m--51130.05315mSRTel: 0481 2563535, Kerala
54CNGRChengannur (3)  04:24+1:3704:25+1:381m151164.7496mSRPh: 0479-2452340, Kerala
55QLNKollam Junction (6)O  05:40+5305:45+535m151225.84816mSRKollam 0474-2746194, Kerala
56TVCTrivandrum Central (5)  07:05+4607:15+4310m151290.43312mSRThiruvananthapuram 695001, Kerala
57NCJNagercoil Junction (4)  09:25+4809:30+515m--51361.43122mSRNagercoil-629002, Tamil Nadu
58CAPE•Kanniyakumari (3)•  10:00+53---51377.0-38mSRKanyakumari, Tamil Nadu
Scroll to Top
Scroll to Bottom